Iron Mountain, MI

10:55 AM CST on December 27, 2014 (GMT -0600)
East Kingsford | Change Station
CLOSE
Current Station
Personal Weather Station
Location: Kingsford, MI
Elevation: 1112 ft
Nearby Weather Stations
Active Advisory: Winter Weather Advisory

Elev 1112 ft 45.79 °N, 88.05 °W | Updated 13 minutes ago

Light Snow
Light Snow Mist
32.1 °F
Feels Like 32 °F
N
2.0
Wind Variable Wind from NNW
Gusts 6.0 mph

Today
High -- | Low -- °F
--% Chance of Precip.
Yesterday
High -- | Low -- °F
Precip. -- in
7:32 AM 4:14 PM
Waxing Crescent, 38% visible
Pressure 29.76 in
Visibility 0.8 miles
Clouds Few 700 ft
Overcast 1100 ft
Windchill 32 °F
Dew Point 31 °F
Humidity 97%
Rainfall 0.00 in
Snow Depth Not available.
UV 0 out of 12
Pollen .10 out of 12
Air Quality Not available.
Flu Activity Not available.
SPECI KIMT 271650Z AUTO 01009KT 3/4SM -SN BR FEW007 OVC011 M01/M02 A2976 RMK AO2 PRESFR P0004

More Conditions Fewer Conditions

Pressure 29.76 in
Visibility 0.8 miles
Clouds Few 700 ft
Overcast 1100 ft
Windchill 32 °F
Dew Point 31 °F
Humidity 97%
Rainfall 0.00 in
Snow Depth Not available.
UV 0 out of 12
Pollen .10 out of 12
Air Quality Not available.
Flu Activity Not available.
SPECI KIMT 271650Z AUTO 01009KT 3/4SM -SN BR FEW007 OVC011 M01/M02 A2976 RMK AO2 PRESFR P0004

More Conditions Fewer Conditions

10-Day Weather Forecast

Almanac

Astronomy

Dec. 27, 2014 Rise Set
Actual Time
Civil Twilight
Nautical Twilight
Astronomical Twilight
Moon
Length of Visible Light
Length of Day
Tomorrow will be .
, % of the Moon is Illuminated

Today's Extremes

State Highs State Lows

Community

WunderPhotos

Upload Photos

1,780,958 photos uploaded!

WunderBlogs® & News

Nearby

Air Quality

  Air Quality AQ Index Pollutant
Not available.

Snow Depth

Station Depth Elevation

Earthquake Activity

City Distance Mag. Time & Date
Minimum magnitude displayed is 2.5.

Coastal Water Temperatures

Place Temperature

Nearby Weather Stations